sensor_id;sensor_type;location;lat;lon;timestamp;P1;durP1;ratioP1;P2;durP2;ratioP2
72771;SDS011;60894;42.544;1.516;2022-09-06T00:01:07;15.02;;;4.05;;
72771;SDS011;60894;42.544;1.516;2022-09-06T00:03:35;13.77;;;3.40;;
72771;SDS011;60894;42.544;1.516;2022-09-06T00:06:04;12.40;;;3.55;;
72771;SDS011;60894;42.544;1.516;2022-09-06T00:08:35;15.23;;;3.70;;
72771;SDS011;60894;42.544;1.516;2022-09-06T00:11:04;9.48;;;3.53;;
72771;SDS011;60894;42.544;1.516;2022-09-06T00:13:31;11.45;;;3.75;;
72771;SDS011;60894;42.544;1.516;2022-09-06T00:16:03;10.52;;;3.53;;
72771;SDS011;60894;42.544;1.516;2022-09-06T00:18:31;12.40;;;3.50;;
72771;SDS011;60894;42.544;1.516;2022-09-06T00:20:58;11.80;;;3.83;;
72771;SDS011;60894;42.544;1.516;2022-09-06T00:23:25;12.52;;;4.10;;
72771;SDS011;60894;42.544;1.516;2022-09-06T00:25:52;16.63;;;4.28;;
72771;SDS011;60894;42.544;1.516;2022-09-06T00:28:27;14.65;;;4.43;;
72771;SDS011;60894;42.544;1.516;2022-09-06T00:30:54;10.90;;;3.50;;
72771;SDS011;60894;42.544;1.516;2022-09-06T00:33:22;12.63;;;3.93;;
72771;SDS011;60894;42.544;1.516;2022-09-06T00:35:48;10.75;;;3.70;;
72771;SDS011;60894;42.544;1.516;2022-09-06T00:38:16;9.90;;;3.70;;
72771;SDS011;60894;42.544;1.516;2022-09-06T00:40:43;14.43;;;3.70;;
72771;SDS011;60894;42.544;1.516;2022-09-06T00:43:10;13.35;;;3.80;;
72771;SDS011;60894;42.544;1.516;2022-09-06T00:45:38;11.33;;;3.80;;
72771;SDS011;60894;42.544;1.516;2022-09-06T00:48:05;11.82;;;3.83;;
72771;SDS011;60894;42.544;1.516;2022-09-06T00:50:33;13.23;;;4.05;;
72771;SDS011;60894;42.544;1.516;2022-09-06T00:53:00;11.25;;;4.22;;
72771;SDS011;60894;42.544;1.516;2022-09-06T00:55:27;9.95;;;3.60;;
72771;SDS011;60894;42.544;1.516;2022-09-06T00:57:54;9.30;;;3.73;;
72771;SDS011;60894;42.544;1.516;2022-09-06T01:00:21;14.90;;;4.78;;
72771;SDS011;60894;42.544;1.516;2022-09-06T01:02:50;14.02;;;4.10;;
72771;SDS011;60894;42.544;1.516;2022-09-06T01:05:18;16.05;;;4.10;;
72771;SDS011;60894;42.544;1.516;2022-09-06T01:07:56;13.05;;;4.47;;
72771;SDS011;60894;42.544;1.516;2022-09-06T01:10:37;12.57;;;3.70;;
72771;SDS011;60894;42.544;1.516;2022-09-06T01:13:21;10.32;;;3.00;;
72771;SDS011;60894;42.544;1.516;2022-09-06T01:15:58;13.35;;;3.40;;
72771;SDS011;60894;42.544;1.516;2022-09-06T01:18:37;10.07;;;3.22;;
72771;SDS011;60894;42.544;1.516;2022-09-06T01:21:22;13.45;;;4.10;;
72771;SDS011;60894;42.544;1.516;2022-09-06T01:24:17;10.37;;;3.63;;
72771;SDS011;60894;42.544;1.516;2022-09-06T01:27:26;14.25;;;3.75;;
72771;SDS011;60894;42.544;1.516;2022-09-06T01:30:04;16.45;;;3.60;;
72771;SDS011;60894;42.544;1.516;2022-09-06T01:32:34;9.70;;;3.40;;
72771;SDS011;60894;42.544;1.516;2022-09-06T01:35:10;16.33;;;4.38;;
72771;SDS011;60894;42.544;1.516;2022-09-06T01:37:41;16.87;;;4.43;;
72771;SDS011;60894;42.544;1.516;2022-09-06T01:40:08;15.38;;;4.05;;
72771;SDS011;60894;42.544;1.516;2022-09-06T01:42:37;14.50;;;4.03;;
72771;SDS011;60894;42.544;1.516;2022-09-06T01:45:06;10.23;;;3.90;;
72771;SDS011;60894;42.544;1.516;2022-09-06T01:47:38;10.35;;;3.83;;
72771;SDS011;60894;42.544;1.516;2022-09-06T01:53:05;12.10;;;3.38;;
72771;SDS011;60894;42.544;1.516;2022-09-06T01:55:41;10.38;;;4.03;;
72771;SDS011;60894;42.544;1.516;2022-09-06T01:58:18;9.07;;;3.30;;
72771;SDS011;60894;42.544;1.516;2022-09-06T02:00:57;11.45;;;3.85;;
72771;SDS011;60894;42.544;1.516;2022-09-06T02:03:30;11.53;;;3.87;;
72771;SDS011;60894;42.544;1.516;2022-09-06T02:06:02;12.75;;;3.80;;
72771;SDS011;60894;42.544;1.516;2022-09-06T02:08:33;14.30;;;3.95;;
72771;SDS011;60894;42.544;1.516;2022-09-06T02:11:03;12.02;;;3.40;;
72771;SDS011;60894;42.544;1.516;2022-09-06T02:13:34;10.95;;;3.83;;
72771;SDS011;60894;42.544;1.516;2022-09-06T02:16:05;13.70;;;3.90;;
72771;SDS011;60894;42.544;1.516;2022-09-06T02:18:35;14.95;;;4.20;;
72771;SDS011;60894;42.544;1.516;2022-09-06T02:21:07;13.00;;;3.80;;
72771;SDS011;60894;42.544;1.516;2022-09-06T02:23:37;10.63;;;3.30;;
72771;SDS011;60894;42.544;1.516;2022-09-06T02:26:08;13.90;;;3.80;;
72771;SDS011;60894;42.544;1.516;2022-09-06T02:28:39;14.20;;;4.20;;
72771;SDS011;60894;42.544;1.516;2022-09-06T02:31:07;8.63;;;3.90;;
72771;SDS011;60894;42.544;1.516;2022-09-06T02:33:38;11.02;;;3.50;;
72771;SDS011;60894;42.544;1.516;2022-09-06T02:36:07;10.30;;;3.30;;
72771;SDS011;60894;42.544;1.516;2022-09-06T02:38:35;10.35;;;3.70;;
72771;SDS011;60894;42.544;1.516;2022-09-06T02:41:05;11.30;;;4.20;;
72771;SDS011;60894;42.544;1.516;2022-09-06T02:43:34;14.68;;;3.58;;
72771;SDS011;60894;42.544;1.516;2022-09-06T02:46:03;13.30;;;3.65;;
72771;SDS011;60894;42.544;1.516;2022-09-06T02:48:30;10.43;;;3.80;;
72771;SDS011;60894;42.544;1.516;2022-09-06T02:51:00;13.75;;;4.18;;
72771;SDS011;60894;42.544;1.516;2022-09-06T02:53:28;10.67;;;3.40;;
72771;SDS011;60894;42.544;1.516;2022-09-06T02:55:55;14.82;;;3.80;;
72771;SDS011;60894;42.544;1.516;2022-09-06T02:58:22;13.23;;;4.07;;
72771;SDS011;60894;42.544;1.516;2022-09-06T03:00:50;12.73;;;3.58;;
72771;SDS011;60894;42.544;1.516;2022-09-06T03:03:18;10.73;;;3.60;;
72771;SDS011;60894;42.544;1.516;2022-09-06T03:05:46;9.53;;;3.60;;
72771;SDS011;60894;42.544;1.516;2022-09-06T03:08:13;10.02;;;3.30;;
72771;SDS011;60894;42.544;1.516;2022-09-06T03:10:41;11.38;;;3.67;;
72771;SDS011;60894;42.544;1.516;2022-09-06T03:13:14;10.40;;;3.53;;
72771;SDS011;60894;42.544;1.516;2022-09-06T03:15:42;11.73;;;3.80;;
72771;SDS011;60894;42.544;1.516;2022-09-06T03:18:09;12.07;;;4.17;;
72771;SDS011;60894;42.544;1.516;2022-09-06T03:20:37;12.13;;;3.53;;
72771;SDS011;60894;42.544;1.516;2022-09-06T03:23:04;10.13;;;3.40;;
72771;SDS011;60894;42.544;1.516;2022-09-06T03:25:31;10.82;;;3.58;;
72771;SDS011;60894;42.544;1.516;2022-09-06T03:27:58;11.80;;;3.35;;
72771;SDS011;60894;42.544;1.516;2022-09-06T03:30:25;9.77;;;3.70;;
72771;SDS011;60894;42.544;1.516;2022-09-06T03:32:52;12.07;;;4.30;;
72771;SDS011;60894;42.544;1.516;2022-09-06T03:35:19;9.35;;;3.42;;
72771;SDS011;60894;42.544;1.516;2022-09-06T03:37:47;8.93;;;3.33;;
72771;SDS011;60894;42.544;1.516;2022-09-06T03:40:14;10.48;;;4.38;;
72771;SDS011;60894;42.544;1.516;2022-09-06T03:42:41;10.17;;;3.50;;
72771;SDS011;60894;42.544;1.516;2022-09-06T03:45:10;11.27;;;3.50;;
72771;SDS011;60894;42.544;1.516;2022-09-06T03:47:37;9.77;;;3.63;;
72771;SDS011;60894;42.544;1.516;2022-09-06T03:50:05;9.40;;;3.05;;
72771;SDS011;60894;42.544;1.516;2022-09-06T03:52:33;8.60;;;3.40;;
72771;SDS011;60894;42.544;1.516;2022-09-06T03:55:01;10.13;;;3.53;;
72771;SDS011;60894;42.544;1.516;2022-09-06T03:57:29;12.13;;;3.40;;
72771;SDS011;60894;42.544;1.516;2022-09-06T03:59:56;11.38;;;3.67;;
72771;SDS011;60894;42.544;1.516;2022-09-06T04:02:23;11.30;;;3.70;;
72771;SDS011;60894;42.544;1.516;2022-09-06T04:04:50;10.02;;;4.13;;
72771;SDS011;60894;42.544;1.516;2022-09-06T04:07:19;12.37;;;3.70;;
72771;SDS011;60894;42.544;1.516;2022-09-06T04:09:47;10.10;;;3.63;;
72771;SDS011;60894;42.544;1.516;2022-09-06T04:12:15;10.63;;;3.10;;
72771;SDS011;60894;42.544;1.516;2022-09-06T04:14:42;11.60;;;3.60;;
72771;SDS011;60894;42.544;1.516;2022-09-06T04:17:09;8.80;;;3.50;;
72771;SDS011;60894;42.544;1.516;2022-09-06T04:19:38;10.77;;;3.87;;
72771;SDS011;60894;42.544;1.516;2022-09-06T04:22:05;11.32;;;3.72;;
72771;SDS011;60894;42.544;1.516;2022-09-06T04:24:32;8.77;;;3.20;;
72771;SDS011;60894;42.544;1.516;2022-09-06T04:26:59;12.90;;;3.88;;
72771;SDS011;60894;42.544;1.516;2022-09-06T04:29:27;10.63;;;3.50;;
72771;SDS011;60894;42.544;1.516;2022-09-06T04:31:54;12.70;;;3.67;;
72771;SDS011;60894;42.544;1.516;2022-09-06T04:34:21;12.13;;;3.67;;
72771;SDS011;60894;42.544;1.516;2022-09-06T04:36:48;10.20;;;3.53;;
72771;SDS011;60894;42.544;1.516;2022-09-06T04:39:15;9.35;;;3.20;;
72771;SDS011;60894;42.544;1.516;2022-09-06T04:41:42;11.23;;;3.50;;
72771;SDS011;60894;42.544;1.516;2022-09-06T04:44:09;11.03;;;3.40;;
72771;SDS011;60894;42.544;1.516;2022-09-06T04:46:39;10.48;;;3.60;;
72771;SDS011;60894;42.544;1.516;2022-09-06T04:49:07;11.25;;;3.65;;
72771;SDS011;60894;42.544;1.516;2022-09-06T04:51:34;9.57;;;3.92;;
72771;SDS011;60894;42.544;1.516;2022-09-06T04:54:03;12.90;;;4.18;;
72771;SDS011;60894;42.544;1.516;2022-09-06T04:56:31;9.90;;;3.10;;
72771;SDS011;60894;42.544;1.516;2022-09-06T04:58:58;9.90;;;3.75;;
72771;SDS011;60894;42.544;1.516;2022-09-06T05:01:25;11.57;;;3.90;;
72771;SDS011;60894;42.544;1.516;2022-09-06T05:03:53;10.43;;;3.35;;
72771;SDS011;60894;42.544;1.516;2022-09-06T05:06:20;9.65;;;3.55;;
72771;SDS011;60894;42.544;1.516;2022-09-06T05:08:49;10.90;;;3.77;;
72771;SDS011;60894;42.544;1.516;2022-09-06T05:11:16;14.77;;;5.43;;
72771;SDS011;60894;42.544;1.516;2022-09-06T05:13:44;12.23;;;3.70;;
72771;SDS011;60894;42.544;1.516;2022-09-06T05:16:11;11.38;;;3.72;;
72771;SDS011;60894;42.544;1.516;2022-09-06T05:18:39;11.93;;;3.88;;
72771;SDS011;60894;42.544;1.516;2022-09-06T05:21:07;10.83;;;3.73;;
72771;SDS011;60894;42.544;1.516;2022-09-06T05:23:34;10.60;;;3.55;;
72771;SDS011;60894;42.544;1.516;2022-09-06T05:26:01;10.07;;;3.60;;
72771;SDS011;60894;42.544;1.516;2022-09-06T05:28:29;10.75;;;3.55;;
72771;SDS011;60894;42.544;1.516;2022-09-06T05:31:03;9.88;;;3.22;;
72771;SDS011;60894;42.544;1.516;2022-09-06T05:33:31;11.20;;;4.00;;
72771;SDS011;60894;42.544;1.516;2022-09-06T05:35:58;10.23;;;3.85;;
72771;SDS011;60894;42.544;1.516;2022-09-06T05:38:27;11.45;;;3.88;;
72771;SDS011;60894;42.544;1.516;2022-09-06T05:40:53;9.20;;;3.30;;
72771;SDS011;60894;42.544;1.516;2022-09-06T05:43:20;10.13;;;4.18;;
72771;SDS011;60894;42.544;1.516;2022-09-06T05:45:47;9.67;;;4.23;;
72771;SDS011;60894;42.544;1.516;2022-09-06T05:48:15;7.97;;;3.53;;
72771;SDS011;60894;42.544;1.516;2022-09-06T05:50:43;9.80;;;3.72;;
72771;SDS011;60894;42.544;1.516;2022-09-06T05:53:10;12.05;;;3.83;;
72771;SDS011;60894;42.544;1.516;2022-09-06T05:55:38;10.98;;;4.00;;
72771;SDS011;60894;42.544;1.516;2022-09-06T05:58:05;14.17;;;4.07;;
72771;SDS011;60894;42.544;1.516;2022-09-06T06:00:32;12.05;;;3.75;;
72771;SDS011;60894;42.544;1.516;2022-09-06T06:02:59;10.57;;;3.97;;
72771;SDS011;60894;42.544;1.516;2022-09-06T06:05:26;13.07;;;4.10;;
72771;SDS011;60894;42.544;1.516;2022-09-06T06:07:53;12.13;;;3.80;;
72771;SDS011;60894;42.544;1.516;2022-09-06T06:10:22;13.17;;;3.97;;
72771;SDS011;60894;42.544;1.516;2022-09-06T06:12:50;9.48;;;3.58;;
72771;SDS011;60894;42.544;1.516;2022-09-06T06:15:17;12.38;;;4.05;;
72771;SDS011;60894;42.544;1.516;2022-09-06T06:17:44;14.52;;;4.00;;
72771;SDS011;60894;42.544;1.516;2022-09-06T06:20:11;10.10;;;3.78;;
72771;SDS011;60894;42.544;1.516;2022-09-06T06:22:38;11.27;;;3.80;;
72771;SDS011;60894;42.544;1.516;2022-09-06T06:25:05;12.52;;;3.83;;
72771;SDS011;60894;42.544;1.516;2022-09-06T06:27:32;10.05;;;3.83;;
72771;SDS011;60894;42.544;1.516;2022-09-06T06:30:02;13.15;;;3.95;;
72771;SDS011;60894;42.544;1.516;2022-09-06T06:32:30;11.35;;;4.65;;
72771;SDS011;60894;42.544;1.516;2022-09-06T06:34:57;13.87;;;3.93;;
72771;SDS011;60894;42.544;1.516;2022-09-06T06:37:24;10.77;;;4.03;;
72771;SDS011;60894;42.544;1.516;2022-09-06T06:39:51;12.15;;;3.97;;
72771;SDS011;60894;42.544;1.516;2022-09-06T06:42:18;13.75;;;4.45;;
72771;SDS011;60894;42.544;1.516;2022-09-06T06:44:45;9.23;;;3.80;;
72771;SDS011;60894;42.544;1.516;2022-09-06T06:47:13;12.67;;;4.30;;
72771;SDS011;60894;42.544;1.516;2022-09-06T06:49:40;11.05;;;5.18;;
72771;SDS011;60894;42.544;1.516;2022-09-06T06:52:07;11.55;;;4.45;;
72771;SDS011;60894;42.544;1.516;2022-09-06T06:54:34;13.45;;;4.28;;
72771;SDS011;60894;42.544;1.516;2022-09-06T06:57:01;11.82;;;4.10;;
72771;SDS011;60894;42.544;1.516;2022-09-06T06:59:29;10.10;;;4.30;;
72771;SDS011;60894;42.544;1.516;2022-09-06T07:01:56;12.55;;;4.15;;
72771;SDS011;60894;42.544;1.516;2022-09-06T07:04:24;13.73;;;4.60;;
72771;SDS011;60894;42.544;1.516;2022-09-06T07:06:52;11.27;;;4.32;;
72771;SDS011;60894;42.544;1.516;2022-09-06T07:09:20;9.02;;;4.32;;
72771;SDS011;60894;42.544;1.516;2022-09-06T07:11:47;9.50;;;3.70;;
72771;SDS011;60894;42.544;1.516;2022-09-06T07:14:15;11.38;;;3.85;;
72771;SDS011;60894;42.544;1.516;2022-09-06T07:16:42;12.57;;;4.10;;
72771;SDS011;60894;42.544;1.516;2022-09-06T07:19:09;12.30;;;6.18;;
72771;SDS011;60894;42.544;1.516;2022-09-06T07:21:38;12.48;;;4.70;;
72771;SDS011;60894;42.544;1.516;2022-09-06T07:24:05;16.23;;;6.10;;
72771;SDS011;60894;42.544;1.516;2022-09-06T07:26:32;15.55;;;5.25;;
72771;SDS011;60894;42.544;1.516;2022-09-06T07:29:00;15.27;;;4.60;;
72771;SDS011;60894;42.544;1.516;2022-09-06T07:31:29;10.48;;;4.13;;
72771;SDS011;60894;42.544;1.516;2022-09-06T07:33:56;12.95;;;4.80;;
72771;SDS011;60894;42.544;1.516;2022-09-06T07:36:23;15.33;;;4.23;;
72771;SDS011;60894;42.544;1.516;2022-09-06T07:38:52;11.05;;;4.45;;
72771;SDS011;60894;42.544;1.516;2022-09-06T07:41:19;15.73;;;4.00;;
72771;SDS011;60894;42.544;1.516;2022-09-06T07:43:47;14.07;;;3.95;;
72771;SDS011;60894;42.544;1.516;2022-09-06T07:46:18;13.38;;;4.32;;
72771;SDS011;60894;42.544;1.516;2022-09-06T07:48:46;11.57;;;3.53;;
72771;SDS011;60894;42.544;1.516;2022-09-06T07:51:14;12.20;;;4.00;;
72771;SDS011;60894;42.544;1.516;2022-09-06T07:53:42;9.27;;;3.22;;
72771;SDS011;60894;42.544;1.516;2022-09-06T07:56:16;10.93;;;3.75;;
72771;SDS011;60894;42.544;1.516;2022-09-06T07:58:43;9.77;;;3.40;;
72771;SDS011;60894;42.544;1.516;2022-09-06T08:01:26;11.87;;;3.70;;
72771;SDS011;60894;42.544;1.516;2022-09-06T08:03:55;13.50;;;3.75;;
72771;SDS011;60894;42.544;1.516;2022-09-06T08:06:23;11.27;;;4.00;;
72771;SDS011;60894;42.544;1.516;2022-09-06T08:08:51;10.93;;;4.05;;
72771;SDS011;60894;42.544;1.516;2022-09-06T08:11:20;10.65;;;3.40;;
72771;SDS011;60894;42.544;1.516;2022-09-06T08:13:48;10.90;;;3.60;;
72771;SDS011;60894;42.544;1.516;2022-09-06T08:16:16;12.25;;;4.05;;
72771;SDS011;60894;42.544;1.516;2022-09-06T08:18:44;13.15;;;4.10;;
72771;SDS011;60894;42.544;1.516;2022-09-06T08:21:15;11.48;;;3.65;;
72771;SDS011;60894;42.544;1.516;2022-09-06T08:23:43;13.02;;;3.72;;
72771;SDS011;60894;42.544;1.516;2022-09-06T08:26:12;11.40;;;3.30;;
72771;SDS011;60894;42.544;1.516;2022-09-06T08:28:41;11.50;;;3.95;;
72771;SDS011;60894;42.544;1.516;2022-09-06T08:31:08;18.17;;;3.70;;
72771;SDS011;60894;42.544;1.516;2022-09-06T08:33:36;10.32;;;4.05;;
72771;SDS011;60894;42.544;1.516;2022-09-06T08:36:04;8.40;;;3.17;;
72771;SDS011;60894;42.544;1.516;2022-09-06T08:38:32;10.97;;;3.50;;
72771;SDS011;60894;42.544;1.516;2022-09-06T08:41:06;11.55;;;3.50;;
72771;SDS011;60894;42.544;1.516;2022-09-06T08:43:37;14.20;;;3.92;;
72771;SDS011;60894;42.544;1.516;2022-09-06T08:46:06;11.65;;;3.40;;
72771;SDS011;60894;42.544;1.516;2022-09-06T08:48:34;10.90;;;3.25;;
72771;SDS011;60894;42.544;1.516;2022-09-06T08:51:15;10.83;;;4.30;;
72771;SDS011;60894;42.544;1.516;2022-09-06T08:54:11;14.88;;;4.95;;
72771;SDS011;60894;42.544;1.516;2022-09-06T08:56:55;10.05;;;3.30;;
72771;SDS011;60894;42.544;1.516;2022-09-06T08:59:28;9.30;;;2.92;;
72771;SDS011;60894;42.544;1.516;2022-09-06T09:02:07;8.45;;;3.13;;
72771;SDS011;60894;42.544;1.516;2022-09-06T09:04:37;11.13;;;3.17;;
72771;SDS011;60894;42.544;1.516;2022-09-06T09:07:11;14.13;;;3.58;;
72771;SDS011;60894;42.544;1.516;2022-09-06T09:09:49;10.80;;;2.92;;
72771;SDS011;60894;42.544;1.516;2022-09-06T09:12:18;12.48;;;3.13;;
72771;SDS011;60894;42.544;1.516;2022-09-06T09:14:48;12.25;;;3.17;;
72771;SDS011;60894;42.544;1.516;2022-09-06T09:17:23;15.20;;;3.40;;
72771;SDS011;60894;42.544;1.516;2022-09-06T09:19:53;11.80;;;3.40;;
72771;SDS011;60894;42.544;1.516;2022-09-06T09:22:20;11.02;;;2.90;;
72771;SDS011;60894;42.544;1.516;2022-09-06T09:24:49;12.38;;;3.17;;
72771;SDS011;60894;42.544;1.516;2022-09-06T09:27:19;14.60;;;2.95;;
72771;SDS011;60894;42.544;1.516;2022-09-06T09:29:58;6.50;;;2.30;;
72771;SDS011;60894;42.544;1.516;2022-09-06T09:32:31;9.18;;;2.45;;
72771;SDS011;60894;42.544;1.516;2022-09-06T09:35:16;8.38;;;2.30;;
72771;SDS011;60894;42.544;1.516;2022-09-06T09:37:55;6.93;;;2.22;;
72771;SDS011;60894;42.544;1.516;2022-09-06T09:40:32;9.45;;;2.40;;
72771;SDS011;60894;42.544;1.516;2022-09-06T09:43:10;9.57;;;2.10;;
72771;SDS011;60894;42.544;1.516;2022-09-06T09:45:40;7.53;;;2.10;;
72771;SDS011;60894;42.544;1.516;2022-09-06T09:48:24;7.40;;;1.80;;
72771;SDS011;60894;42.544;1.516;2022-09-06T09:50:53;6.47;;;1.85;;
72771;SDS011;60894;42.544;1.516;2022-09-06T09:53:21;7.00;;;2.00;;
72771;SDS011;60894;42.544;1.516;2022-09-06T09:55:53;8.37;;;1.90;;
72771;SDS011;60894;42.544;1.516;2022-09-06T09:58:28;4.32;;;1.90;;
72771;SDS011;60894;42.544;1.516;2022-09-06T10:01:08;6.38;;;1.80;;
72771;SDS011;60894;42.544;1.516;2022-09-06T10:03:38;7.88;;;1.80;;
72771;SDS011;60894;42.544;1.516;2022-09-06T10:06:06;7.97;;;1.90;;
72771;SDS011;60894;42.544;1.516;2022-09-06T10:08:38;6.43;;;1.90;;
72771;SDS011;60894;42.544;1.516;2022-09-06T10:11:10;9.25;;;1.90;;
72771;SDS011;60894;42.544;1.516;2022-09-06T10:13:38;8.35;;;2.03;;
72771;SDS011;60894;42.544;1.516;2022-09-06T10:16:07;11.70;;;1.98;;
72771;SDS011;60894;42.544;1.516;2022-09-06T10:18:35;5.32;;;1.80;;
72771;SDS011;60894;42.544;1.516;2022-09-06T10:21:05;6.30;;;1.80;;
72771;SDS011;60894;42.544;1.516;2022-09-06T10:23:46;6.53;;;2.20;;
72771;SDS011;60894;42.544;1.516;2022-09-06T10:26:26;7.10;;;2.00;;
72771;SDS011;60894;42.544;1.516;2022-09-06T10:29:00;9.18;;;1.90;;
72771;SDS011;60894;42.544;1.516;2022-09-06T10:34:41;8.17;;;2.43;;
72771;SDS011;60894;42.544;1.516;2022-09-06T10:37:29;10.30;;;2.10;;
72771;SDS011;60894;42.544;1.516;2022-09-06T10:40:08;6.13;;;1.95;;
72771;SDS011;60894;42.544;1.516;2022-09-06T10:42:38;7.70;;;2.08;;
72771;SDS011;60894;42.544;1.516;2022-09-06T10:45:23;9.98;;;3.15;;
72771;SDS011;60894;42.544;1.516;2022-09-06T10:47:55;7.93;;;2.60;;
72771;SDS011;60894;42.544;1.516;2022-09-06T10:50:27;7.30;;;1.83;;
72771;SDS011;60894;42.544;1.516;2022-09-06T10:53:04;5.57;;;2.28;;
72771;SDS011;60894;42.544;1.516;2022-09-06T10:55:36;7.25;;;2.40;;
72771;SDS011;60894;42.544;1.516;2022-09-06T10:58:06;5.07;;;1.80;;
72771;SDS011;60894;42.544;1.516;2022-09-06T11:00:38;10.70;;;2.30;;
72771;SDS011;60894;42.544;1.516;2022-09-06T11:03:13;7.55;;;2.25;;
72771;SDS011;60894;42.544;1.516;2022-09-06T11:05:47;5.88;;;2.10;;
72771;SDS011;60894;42.544;1.516;2022-09-06T11:08:22;8.98;;;3.30;;
72771;SDS011;60894;42.544;1.516;2022-09-06T11:10:53;7.65;;;2.15;;
72771;SDS011;60894;42.544;1.516;2022-09-06T11:13:21;6.93;;;2.17;;
72771;SDS011;60894;42.544;1.516;2022-09-06T11:15:53;7.13;;;2.30;;
72771;SDS011;60894;42.544;1.516;2022-09-06T11:18:25;8.75;;;2.30;;
72771;SDS011;60894;42.544;1.516;2022-09-06T11:21:01;9.35;;;2.30;;
72771;SDS011;60894;42.544;1.516;2022-09-06T11:23:48;4.05;;;2.00;;
72771;SDS011;60894;42.544;1.516;2022-09-06T11:26:27;5.80;;;1.90;;
72771;SDS011;60894;42.544;1.516;2022-09-06T11:28:58;6.13;;;2.00;;
72771;SDS011;60894;42.544;1.516;2022-09-06T11:31:27;5.40;;;2.10;;
72771;SDS011;60894;42.544;1.516;2022-09-06T11:34:00;5.68;;;2.08;;
72771;SDS011;60894;42.544;1.516;2022-09-06T11:36:33;7.93;;;2.00;;
72771;SDS011;60894;42.544;1.516;2022-09-06T11:39:03;9.47;;;2.10;;
72771;SDS011;60894;42.544;1.516;2022-09-06T11:41:33;8.50;;;2.10;;
72771;SDS011;60894;42.544;1.516;2022-09-06T11:44:02;7.18;;;1.95;;
72771;SDS011;60894;42.544;1.516;2022-09-06T11:49:35;6.90;;;2.00;;
72771;SDS011;60894;42.544;1.516;2022-09-06T11:55:28;6.57;;;2.22;;
72771;SDS011;60894;42.544;1.516;2022-09-06T11:57:59;5.35;;;1.98;;
72771;SDS011;60894;42.544;1.516;2022-09-06T12:00:29;8.25;;;1.88;;
72771;SDS011;60894;42.544;1.516;2022-09-06T12:02:56;9.02;;;2.20;;
72771;SDS011;60894;42.544;1.516;2022-09-06T12:05:27;5.50;;;1.90;;
72771;SDS011;60894;42.544;1.516;2022-09-06T12:08:12;7.90;;;2.10;;
72771;SDS011;60894;42.544;1.516;2022-09-06T12:10:57;5.32;;;1.80;;
72771;SDS011;60894;42.544;1.516;2022-09-06T12:13:38;8.48;;;2.03;;
72771;SDS011;60894;42.544;1.516;2022-09-06T12:16:13;5.18;;;2.10;;
72771;SDS011;60894;42.544;1.516;2022-09-06T12:18:51;6.33;;;1.70;;
72771;SDS011;60894;42.544;1.516;2022-09-06T12:21:40;5.07;;;1.85;;
72771;SDS011;60894;42.544;1.516;2022-09-06T12:27:18;8.35;;;1.95;;
72771;SDS011;60894;42.544;1.516;2022-09-06T12:29:48;5.70;;;1.70;;
72771;SDS011;60894;42.544;1.516;2022-09-06T12:32:19;6.27;;;1.77;;
72771;SDS011;60894;42.544;1.516;2022-09-06T12:34:50;6.13;;;1.45;;
72771;SDS011;60894;42.544;1.516;2022-09-06T12:37:28;5.85;;;1.83;;
72771;SDS011;60894;42.544;1.516;2022-09-06T12:39:58;7.63;;;1.98;;
72771;SDS011;60894;42.544;1.516;2022-09-06T12:42:26;5.43;;;1.60;;
72771;SDS011;60894;42.544;1.516;2022-09-06T12:44:54;6.07;;;1.70;;
72771;SDS011;60894;42.544;1.516;2022-09-06T12:47:23;6.60;;;2.40;;
72771;SDS011;60894;42.544;1.516;2022-09-06T12:50:06;5.43;;;1.70;;
72771;SDS011;60894;42.544;1.516;2022-09-06T12:52:47;6.70;;;1.98;;
72771;SDS011;60894;42.544;1.516;2022-09-06T12:55:18;5.50;;;1.75;;
72771;SDS011;60894;42.544;1.516;2022-09-06T12:57:50;6.57;;;1.80;;
72771;SDS011;60894;42.544;1.516;2022-09-06T13:00:18;4.53;;;1.88;;
72771;SDS011;60894;42.544;1.516;2022-09-06T13:02:50;5.22;;;2.00;;
72771;SDS011;60894;42.544;1.516;2022-09-06T13:05:22;5.97;;;2.00;;
72771;SDS011;60894;42.544;1.516;2022-09-06T13:07:52;6.65;;;2.00;;
72771;SDS011;60894;42.544;1.516;2022-09-06T13:10:20;4.77;;;1.50;;
72771;SDS011;60894;42.544;1.516;2022-09-06T13:12:52;6.37;;;1.70;;
72771;SDS011;60894;42.544;1.516;2022-09-06T13:15:21;4.03;;;1.40;;
72771;SDS011;60894;42.544;1.516;2022-09-06T13:17:50;3.85;;;1.40;;
72771;SDS011;60894;42.544;1.516;2022-09-06T13:20:21;6.53;;;1.80;;
72771;SDS011;60894;42.544;1.516;2022-09-06T13:22:51;4.78;;;1.50;;
72771;SDS011;60894;42.544;1.516;2022-09-06T13:25:23;6.67;;;1.70;;
72771;SDS011;60894;42.544;1.516;2022-09-06T13:27:53;3.70;;;1.38;;
72771;SDS011;60894;42.544;1.516;2022-09-06T13:30:30;4.18;;;1.70;;
72771;SDS011;60894;42.544;1.516;2022-09-06T13:32:59;4.88;;;1.30;;
72771;SDS011;60894;42.544;1.516;2022-09-06T13:35:28;5.35;;;1.55;;
72771;SDS011;60894;42.544;1.516;2022-09-06T13:40:56;9.07;;;1.60;;
72771;SDS011;60894;42.544;1.516;2022-09-06T13:43:26;5.43;;;1.50;;
72771;SDS011;60894;42.544;1.516;2022-09-06T13:46:05;6.25;;;1.67;;
72771;SDS011;60894;42.544;1.516;2022-09-06T13:48:33;3.15;;;1.40;;
72771;SDS011;60894;42.544;1.516;2022-09-06T13:51:02;5.30;;;1.67;;
72771;SDS011;60894;42.544;1.516;2022-09-06T13:53:31;3.57;;;1.37;;
72771;SDS011;60894;42.544;1.516;2022-09-06T13:55:58;3.60;;;1.50;;
72771;SDS011;60894;42.544;1.516;2022-09-06T13:58:26;5.93;;;1.65;;
72771;SDS011;60894;42.544;1.516;2022-09-06T14:00:54;5.55;;;1.60;;
72771;SDS011;60894;42.544;1.516;2022-09-06T14:03:23;6.65;;;1.50;;
72771;SDS011;60894;42.544;1.516;2022-09-06T14:05:52;7.17;;;1.60;;
72771;SDS011;60894;42.544;1.516;2022-09-06T14:08:19;4.23;;;1.30;;
72771;SDS011;60894;42.544;1.516;2022-09-06T14:10:46;5.80;;;1.40;;
72771;SDS011;60894;42.544;1.516;2022-09-06T14:13:14;4.50;;;1.65;;
72771;SDS011;60894;42.544;1.516;2022-09-06T14:15:43;4.53;;;1.50;;
72771;SDS011;60894;42.544;1.516;2022-09-06T14:18:10;4.05;;;1.55;;
72771;SDS011;60894;42.544;1.516;2022-09-06T14:20:37;7.17;;;1.77;;
72771;SDS011;60894;42.544;1.516;2022-09-06T14:23:05;4.57;;;1.63;;
72771;SDS011;60894;42.544;1.516;2022-09-06T14:25:33;5.05;;;1.50;;
72771;SDS011;60894;42.544;1.516;2022-09-06T14:28:01;9.52;;;1.83;;
72771;SDS011;60894;42.544;1.516;2022-09-06T14:30:28;4.70;;;1.48;;
72771;SDS011;60894;42.544;1.516;2022-09-06T14:32:57;5.82;;;1.77;;
72771;SDS011;60894;42.544;1.516;2022-09-06T14:35:24;5.60;;;1.60;;
72771;SDS011;60894;42.544;1.516;2022-09-06T14:37:51;6.13;;;1.80;;
72771;SDS011;60894;42.544;1.516;2022-09-06T14:40:18;6.60;;;1.88;;
72771;SDS011;60894;42.544;1.516;2022-09-06T14:42:45;8.98;;;1.80;;
72771;SDS011;60894;42.544;1.516;2022-09-06T14:45:12;7.75;;;1.90;;
72771;SDS011;60894;42.544;1.516;2022-09-06T14:47:39;6.87;;;1.87;;
72771;SDS011;60894;42.544;1.516;2022-09-06T14:50:08;7.60;;;1.67;;
72771;SDS011;60894;42.544;1.516;2022-09-06T14:52:35;6.00;;;1.85;;
72771;SDS011;60894;42.544;1.516;2022-09-06T14:55:03;7.63;;;2.08;;
72771;SDS011;60894;42.544;1.516;2022-09-06T14:57:30;4.82;;;1.75;;
72771;SDS011;60894;42.544;1.516;2022-09-06T14:59:57;6.23;;;1.73;;
72771;SDS011;60894;42.544;1.516;2022-09-06T15:02:24;7.70;;;2.00;;
72771;SDS011;60894;42.544;1.516;2022-09-06T15:04:53;5.28;;;1.55;;
72771;SDS011;60894;42.544;1.516;2022-09-06T15:07:22;7.10;;;1.70;;
72771;SDS011;60894;42.544;1.516;2022-09-06T15:09:48;5.88;;;1.77;;
72771;SDS011;60894;42.544;1.516;2022-09-06T15:12:16;5.28;;;1.73;;
72771;SDS011;60894;42.544;1.516;2022-09-06T15:14:43;5.23;;;1.80;;
72771;SDS011;60894;42.544;1.516;2022-09-06T15:17:10;7.95;;;2.05;;